sensor_id;sensor_type;location;lat;lon;timestamp;P1;durP1;ratioP1;P2;durP2;ratioP2
5965;SDS011;3009;43.224;27.976;2023-01-04T00:02:03;18.63;;;13.30;;
5965;SDS011;3009;43.224;27.976;2023-01-04T00:04:31;25.77;;;14.10;;
5965;SDS011;3009;43.224;27.976;2023-01-04T00:06:59;17.80;;;13.33;;
5965;SDS011;3009;43.224;27.976;2023-01-04T00:09:28;20.60;;;14.40;;
5965;SDS011;3009;43.224;27.976;2023-01-04T00:11:56;18.10;;;12.00;;
5965;SDS011;3009;43.224;27.976;2023-01-04T00:14:25;22.00;;;13.93;;
5965;SDS011;3009;43.224;27.976;2023-01-04T00:16:53;20.37;;;13.63;;
5965;SDS011;3009;43.224;27.976;2023-01-04T00:19:23;20.90;;;12.60;;
5965;SDS011;3009;43.224;27.976;2023-01-04T00:21:51;21.80;;;14.10;;
5965;SDS011;3009;43.224;27.976;2023-01-04T00:24:19;20.17;;;13.97;;
5965;SDS011;3009;43.224;27.976;2023-01-04T00:26:47;17.20;;;12.73;;
5965;SDS011;3009;43.224;27.976;2023-01-04T00:29:16;17.43;;;12.93;;
5965;SDS011;3009;43.224;27.976;2023-01-04T00:31:44;22.03;;;13.87;;
5965;SDS011;3009;43.224;27.976;2023-01-04T00:34:13;19.23;;;14.23;;
5965;SDS011;3009;43.224;27.976;2023-01-04T00:36:44;19.00;;;14.63;;
5965;SDS011;3009;43.224;27.976;2023-01-04T00:39:19;27.07;;;15.43;;
5965;SDS011;3009;43.224;27.976;2023-01-04T00:41:48;21.20;;;15.07;;
5965;SDS011;3009;43.224;27.976;2023-01-04T00:44:26;22.80;;;15.07;;
5965;SDS011;3009;43.224;27.976;2023-01-04T00:46:55;21.17;;;14.30;;
5965;SDS011;3009;43.224;27.976;2023-01-04T00:49:24;23.13;;;16.20;;
5965;SDS011;3009;43.224;27.976;2023-01-04T00:51:55;24.73;;;15.53;;
5965;SDS011;3009;43.224;27.976;2023-01-04T00:54:23;25.97;;;16.20;;
5965;SDS011;3009;43.224;27.976;2023-01-04T00:56:51;24.57;;;15.17;;
5965;SDS011;3009;43.224;27.976;2023-01-04T00:59:21;28.60;;;15.17;;
5965;SDS011;3009;43.224;27.976;2023-01-04T01:01:49;24.77;;;15.87;;
5965;SDS011;3009;43.224;27.976;2023-01-04T01:04:19;22.20;;;16.00;;
5965;SDS011;3009;43.224;27.976;2023-01-04T01:06:49;26.20;;;15.90;;
5965;SDS011;3009;43.224;27.976;2023-01-04T01:09:19;22.10;;;15.67;;
5965;SDS011;3009;43.224;27.976;2023-01-04T01:11:49;23.70;;;15.87;;
5965;SDS011;3009;43.224;27.976;2023-01-04T01:14:19;23.80;;;15.63;;
5965;SDS011;3009;43.224;27.976;2023-01-04T01:16:50;27.03;;;16.20;;
5965;SDS011;3009;43.224;27.976;2023-01-04T01:19:22;21.60;;;15.03;;
5965;SDS011;3009;43.224;27.976;2023-01-04T01:21:50;24.77;;;16.87;;
5965;SDS011;3009;43.224;27.976;2023-01-04T01:24:20;29.83;;;17.53;;
5965;SDS011;3009;43.224;27.976;2023-01-04T01:26:48;23.57;;;16.10;;
5965;SDS011;3009;43.224;27.976;2023-01-04T01:29:19;28.60;;;17.60;;
5965;SDS011;3009;43.224;27.976;2023-01-04T01:31:47;32.13;;;20.13;;
5965;SDS011;3009;43.224;27.976;2023-01-04T01:34:16;30.87;;;17.70;;
5965;SDS011;3009;43.224;27.976;2023-01-04T01:36:44;25.73;;;16.10;;
5965;SDS011;3009;43.224;27.976;2023-01-04T01:39:12;28.80;;;18.03;;
5965;SDS011;3009;43.224;27.976;2023-01-04T01:41:42;27.07;;;17.37;;
5965;SDS011;3009;43.224;27.976;2023-01-04T01:47:37;25.53;;;16.33;;
5965;SDS011;3009;43.224;27.976;2023-01-04T01:50:14;28.80;;;17.10;;
5965;SDS011;3009;43.224;27.976;2023-01-04T01:52:52;23.43;;;15.53;;
5965;SDS011;3009;43.224;27.976;2023-01-04T01:55:22;22.10;;;15.23;;
5965;SDS011;3009;43.224;27.976;2023-01-04T01:57:52;25.20;;;16.57;;
5965;SDS011;3009;43.224;27.976;2023-01-04T02:00:21;28.10;;;16.80;;
5965;SDS011;3009;43.224;27.976;2023-01-04T02:02:52;33.10;;;18.90;;
5965;SDS011;3009;43.224;27.976;2023-01-04T02:05:26;22.90;;;16.57;;
5965;SDS011;3009;43.224;27.976;2023-01-04T02:07:56;27.60;;;17.57;;
5965;SDS011;3009;43.224;27.976;2023-01-04T02:10:26;28.97;;;16.10;;
5965;SDS011;3009;43.224;27.976;2023-01-04T02:12:56;27.30;;;16.30;;
5965;SDS011;3009;43.224;27.976;2023-01-04T02:15:25;27.60;;;16.53;;
5965;SDS011;3009;43.224;27.976;2023-01-04T02:17:59;27.60;;;16.10;;
5965;SDS011;3009;43.224;27.976;2023-01-04T02:20:39;23.57;;;16.40;;
5965;SDS011;3009;43.224;27.976;2023-01-04T02:32:39;24.90;;;15.10;;
5965;SDS011;3009;43.224;27.976;2023-01-04T02:35:19;29.33;;;16.13;;
5965;SDS011;3009;43.224;27.976;2023-01-04T02:37:54;22.30;;;14.97;;
5965;SDS011;3009;43.224;27.976;2023-01-04T02:40:32;24.77;;;15.40;;
5965;SDS011;3009;43.224;27.976;2023-01-04T02:43:13;26.07;;;17.00;;
5965;SDS011;3009;43.224;27.976;2023-01-04T02:46:05;28.57;;;16.80;;
5965;SDS011;3009;43.224;27.976;2023-01-04T02:48:40;24.53;;;15.60;;
5965;SDS011;3009;43.224;27.976;2023-01-04T02:51:26;24.40;;;15.90;;
5965;SDS011;3009;43.224;27.976;2023-01-04T02:53:57;25.67;;;16.17;;
5965;SDS011;3009;43.224;27.976;2023-01-04T02:56:34;27.60;;;16.00;;
5965;SDS011;3009;43.224;27.976;2023-01-04T02:59:26;25.30;;;15.13;;
5965;SDS011;3009;43.224;27.976;2023-01-04T03:02:09;21.60;;;14.80;;
5965;SDS011;3009;43.224;27.976;2023-01-04T03:05:09;23.00;;;14.30;;
5965;SDS011;3009;43.224;27.976;2023-01-04T03:08:00;25.73;;;16.07;;
5965;SDS011;3009;43.224;27.976;2023-01-04T03:10:37;21.20;;;13.50;;
5965;SDS011;3009;43.224;27.976;2023-01-04T03:13:09;31.20;;;15.80;;
5965;SDS011;3009;43.224;27.976;2023-01-04T03:15:43;20.10;;;14.20;;
5965;SDS011;3009;43.224;27.976;2023-01-04T03:18:15;23.70;;;13.57;;
5965;SDS011;3009;43.224;27.976;2023-01-04T03:20:49;28.80;;;15.20;;
5965;SDS011;3009;43.224;27.976;2023-01-04T03:23:21;23.93;;;14.27;;
5965;SDS011;3009;43.224;27.976;2023-01-04T03:26:12;22.27;;;14.40;;
5965;SDS011;3009;43.224;27.976;2023-01-04T03:29:02;22.00;;;14.43;;
5965;SDS011;3009;43.224;27.976;2023-01-04T03:32:00;23.97;;;14.97;;
5965;SDS011;3009;43.224;27.976;2023-01-04T03:34:51;19.87;;;14.30;;
5965;SDS011;3009;43.224;27.976;2023-01-04T03:37:41;25.57;;;15.30;;
5965;SDS011;3009;43.224;27.976;2023-01-04T03:40:20;20.33;;;13.70;;
5965;SDS011;3009;43.224;27.976;2023-01-04T03:43:12;20.43;;;14.00;;
5965;SDS011;3009;43.224;27.976;2023-01-04T03:46:02;22.10;;;13.77;;
5965;SDS011;3009;43.224;27.976;2023-01-04T03:48:53;21.83;;;13.70;;
5965;SDS011;3009;43.224;27.976;2023-01-04T03:51:26;25.13;;;15.00;;
5965;SDS011;3009;43.224;27.976;2023-01-04T03:54:02;21.50;;;13.60;;
5965;SDS011;3009;43.224;27.976;2023-01-04T03:56:35;29.07;;;12.67;;
5965;SDS011;3009;43.224;27.976;2023-01-04T03:59:07;20.67;;;13.40;;
5965;SDS011;3009;43.224;27.976;2023-01-04T04:01:36;20.27;;;12.60;;
5965;SDS011;3009;43.224;27.976;2023-01-04T04:04:06;20.80;;;13.30;;
5965;SDS011;3009;43.224;27.976;2023-01-04T04:06:51;20.13;;;13.20;;
5965;SDS011;3009;43.224;27.976;2023-01-04T04:09:39;19.93;;;13.13;;
5965;SDS011;3009;43.224;27.976;2023-01-04T04:12:07;16.33;;;12.37;;
5965;SDS011;3009;43.224;27.976;2023-01-04T04:14:35;25.20;;;13.40;;
5965;SDS011;3009;43.224;27.976;2023-01-04T04:17:03;21.37;;;12.97;;
5965;SDS011;3009;43.224;27.976;2023-01-04T04:19:31;19.70;;;13.77;;
5965;SDS011;3009;43.224;27.976;2023-01-04T04:22:00;21.50;;;13.80;;
5965;SDS011;3009;43.224;27.976;2023-01-04T04:24:28;23.47;;;13.50;;
5965;SDS011;3009;43.224;27.976;2023-01-04T04:26:59;22.70;;;13.30;;
5965;SDS011;3009;43.224;27.976;2023-01-04T04:29:27;20.73;;;12.50;;
5965;SDS011;3009;43.224;27.976;2023-01-04T04:31:55;19.70;;;13.53;;
5965;SDS011;3009;43.224;27.976;2023-01-04T04:34:23;19.90;;;13.90;;
5965;SDS011;3009;43.224;27.976;2023-01-04T04:36:53;20.80;;;12.93;;
5965;SDS011;3009;43.224;27.976;2023-01-04T04:39:21;21.17;;;14.00;;
5965;SDS011;3009;43.224;27.976;2023-01-04T04:41:49;17.50;;;12.53;;
5965;SDS011;3009;43.224;27.976;2023-01-04T04:44:18;22.17;;;13.27;;
5965;SDS011;3009;43.224;27.976;2023-01-04T04:46:47;20.27;;;13.70;;
5965;SDS011;3009;43.224;27.976;2023-01-04T04:49:16;18.60;;;12.17;;
5965;SDS011;3009;43.224;27.976;2023-01-04T04:51:45;18.43;;;11.30;;
5965;SDS011;3009;43.224;27.976;2023-01-04T04:54:15;17.27;;;12.60;;
5965;SDS011;3009;43.224;27.976;2023-01-04T04:56:46;24.80;;;13.93;;
5965;SDS011;3009;43.224;27.976;2023-01-04T04:59:15;22.00;;;13.77;;
5965;SDS011;3009;43.224;27.976;2023-01-04T05:01:44;24.20;;;13.33;;
5965;SDS011;3009;43.224;27.976;2023-01-04T05:04:13;19.07;;;12.90;;
5965;SDS011;3009;43.224;27.976;2023-01-04T05:06:42;19.93;;;12.43;;
5965;SDS011;3009;43.224;27.976;2023-01-04T05:09:11;17.30;;;12.37;;
5965;SDS011;3009;43.224;27.976;2023-01-04T05:11:40;15.93;;;11.60;;
5965;SDS011;3009;43.224;27.976;2023-01-04T05:14:26;18.97;;;12.77;;
5965;SDS011;3009;43.224;27.976;2023-01-04T05:16:56;19.83;;;12.80;;
5965;SDS011;3009;43.224;27.976;2023-01-04T05:19:24;19.60;;;12.50;;
5965;SDS011;3009;43.224;27.976;2023-01-04T05:21:53;20.17;;;12.07;;
5965;SDS011;3009;43.224;27.976;2023-01-04T05:24:22;20.80;;;11.97;;
5965;SDS011;3009;43.224;27.976;2023-01-04T05:26:50;17.37;;;11.97;;
5965;SDS011;3009;43.224;27.976;2023-01-04T05:29:19;18.13;;;11.80;;
5965;SDS011;3009;43.224;27.976;2023-01-04T05:32:06;17.83;;;13.03;;
5965;SDS011;3009;43.224;27.976;2023-01-04T05:34:34;17.83;;;11.93;;
5965;SDS011;3009;43.224;27.976;2023-01-04T05:37:02;18.20;;;12.20;;
5965;SDS011;3009;43.224;27.976;2023-01-04T05:39:30;18.70;;;13.13;;
5965;SDS011;3009;43.224;27.976;2023-01-04T05:41:59;22.30;;;12.87;;
5965;SDS011;3009;43.224;27.976;2023-01-04T05:44:44;17.90;;;12.87;;
5965;SDS011;3009;43.224;27.976;2023-01-04T05:47:14;22.27;;;13.30;;
5965;SDS011;3009;43.224;27.976;2023-01-04T05:49:42;18.33;;;12.87;;
5965;SDS011;3009;43.224;27.976;2023-01-04T05:52:10;17.53;;;11.97;;
5965;SDS011;3009;43.224;27.976;2023-01-04T05:54:39;20.93;;;12.83;;
5965;SDS011;3009;43.224;27.976;2023-01-04T05:57:07;28.63;;;14.80;;
5965;SDS011;3009;43.224;27.976;2023-01-04T05:59:36;18.67;;;12.70;;
5965;SDS011;3009;43.224;27.976;2023-01-04T06:02:12;16.53;;;12.47;;
5965;SDS011;3009;43.224;27.976;2023-01-04T06:04:47;25.00;;;12.90;;
5965;SDS011;3009;43.224;27.976;2023-01-04T06:07:23;24.73;;;13.70;;
5965;SDS011;3009;43.224;27.976;2023-01-04T06:09:51;20.93;;;12.90;;
5965;SDS011;3009;43.224;27.976;2023-01-04T06:12:20;24.40;;;13.90;;
5965;SDS011;3009;43.224;27.976;2023-01-04T06:14:48;23.50;;;12.80;;
5965;SDS011;3009;43.224;27.976;2023-01-04T06:17:18;22.37;;;12.17;;
5965;SDS011;3009;43.224;27.976;2023-01-04T06:22:18;16.80;;;12.00;;
5965;SDS011;3009;43.224;27.976;2023-01-04T06:24:46;19.30;;;12.83;;
5965;SDS011;3009;43.224;27.976;2023-01-04T06:27:15;18.17;;;12.60;;
5965;SDS011;3009;43.224;27.976;2023-01-04T06:29:43;25.07;;;12.10;;
5965;SDS011;3009;43.224;27.976;2023-01-04T06:32:11;15.93;;;11.10;;
5965;SDS011;3009;43.224;27.976;2023-01-04T06:34:41;18.07;;;12.07;;
5965;SDS011;3009;43.224;27.976;2023-01-04T06:37:10;18.00;;;12.40;;
5965;SDS011;3009;43.224;27.976;2023-01-04T06:39:38;16.47;;;11.80;;
5965;SDS011;3009;43.224;27.976;2023-01-04T06:42:06;15.73;;;10.80;;
5965;SDS011;3009;43.224;27.976;2023-01-04T06:44:56;16.43;;;11.63;;
5965;SDS011;3009;43.224;27.976;2023-01-04T06:47:24;19.90;;;12.30;;
5965;SDS011;3009;43.224;27.976;2023-01-04T06:49:53;31.77;;;12.40;;
5965;SDS011;3009;43.224;27.976;2023-01-04T06:52:22;22.33;;;12.27;;
5965;SDS011;3009;43.224;27.976;2023-01-04T06:54:50;20.73;;;12.07;;
5965;SDS011;3009;43.224;27.976;2023-01-04T06:57:18;20.70;;;12.30;;
5965;SDS011;3009;43.224;27.976;2023-01-04T06:59:46;16.30;;;10.60;;
5965;SDS011;3009;43.224;27.976;2023-01-04T07:02:15;20.77;;;13.67;;
5965;SDS011;3009;43.224;27.976;2023-01-04T07:04:43;27.53;;;12.70;;
5965;SDS011;3009;43.224;27.976;2023-01-04T07:07:13;20.57;;;12.50;;
5965;SDS011;3009;43.224;27.976;2023-01-04T07:09:41;18.10;;;11.13;;
5965;SDS011;3009;43.224;27.976;2023-01-04T07:12:09;18.27;;;11.87;;
5965;SDS011;3009;43.224;27.976;2023-01-04T07:14:38;14.87;;;10.97;;
5965;SDS011;3009;43.224;27.976;2023-01-04T07:17:06;16.43;;;12.07;;
5965;SDS011;3009;43.224;27.976;2023-01-04T07:19:34;20.67;;;12.40;;
5965;SDS011;3009;43.224;27.976;2023-01-04T07:22:02;21.67;;;12.97;;
5965;SDS011;3009;43.224;27.976;2023-01-04T07:24:32;35.33;;;11.77;;
5965;SDS011;3009;43.224;27.976;2023-01-04T07:27:00;17.70;;;11.60;;
5965;SDS011;3009;43.224;27.976;2023-01-04T07:29:29;16.10;;;11.30;;
5965;SDS011;3009;43.224;27.976;2023-01-04T07:31:57;26.53;;;12.80;;
5965;SDS011;3009;43.224;27.976;2023-01-04T07:34:26;19.53;;;12.40;;
5965;SDS011;3009;43.224;27.976;2023-01-04T07:36:55;16.00;;;11.80;;
5965;SDS011;3009;43.224;27.976;2023-01-04T07:39:23;16.13;;;12.30;;
5965;SDS011;3009;43.224;27.976;2023-01-04T07:41:53;15.60;;;11.33;;
5965;SDS011;3009;43.224;27.976;2023-01-04T07:44:21;14.63;;;10.70;;
5965;SDS011;3009;43.224;27.976;2023-01-04T07:46:51;19.00;;;11.20;;
5965;SDS011;3009;43.224;27.976;2023-01-04T07:49:20;15.27;;;11.10;;
5965;SDS011;3009;43.224;27.976;2023-01-04T07:51:48;13.67;;;10.70;;
5965;SDS011;3009;43.224;27.976;2023-01-04T07:54:17;16.87;;;10.53;;
5965;SDS011;3009;43.224;27.976;2023-01-04T07:56:45;17.60;;;12.13;;
5965;SDS011;3009;43.224;27.976;2023-01-04T07:59:16;21.80;;;11.30;;
5965;SDS011;3009;43.224;27.976;2023-01-04T08:01:46;11.93;;;10.30;;
5965;SDS011;3009;43.224;27.976;2023-01-04T08:04:16;18.33;;;11.87;;
5965;SDS011;3009;43.224;27.976;2023-01-04T08:06:44;22.60;;;15.80;;
5965;SDS011;3009;43.224;27.976;2023-01-04T08:09:13;15.60;;;11.03;;
5965;SDS011;3009;43.224;27.976;2023-01-04T08:11:41;12.87;;;10.80;;
5965;SDS011;3009;43.224;27.976;2023-01-04T08:14:09;14.87;;;11.43;;
5965;SDS011;3009;43.224;27.976;2023-01-04T08:16:40;18.53;;;12.57;;
5965;SDS011;3009;43.224;27.976;2023-01-04T08:19:11;23.93;;;11.77;;
5965;SDS011;3009;43.224;27.976;2023-01-04T08:21:41;18.40;;;11.30;;
5965;SDS011;3009;43.224;27.976;2023-01-04T08:24:10;15.30;;;10.73;;
5965;SDS011;3009;43.224;27.976;2023-01-04T08:26:39;17.47;;;11.17;;
5965;SDS011;3009;43.224;27.976;2023-01-04T08:29:07;16.30;;;11.07;;
5965;SDS011;3009;43.224;27.976;2023-01-04T08:31:36;18.73;;;12.47;;
5965;SDS011;3009;43.224;27.976;2023-01-04T08:34:07;20.33;;;12.97;;
5965;SDS011;3009;43.224;27.976;2023-01-04T08:36:43;22.23;;;11.70;;
5965;SDS011;3009;43.224;27.976;2023-01-04T08:39:12;15.90;;;10.70;;
5965;SDS011;3009;43.224;27.976;2023-01-04T08:41:41;15.13;;;10.57;;
5965;SDS011;3009;43.224;27.976;2023-01-04T08:44:30;19.73;;;11.97;;
5965;SDS011;3009;43.224;27.976;2023-01-04T08:47:00;17.70;;;11.10;;
5965;SDS011;3009;43.224;27.976;2023-01-04T08:49:29;14.50;;;9.73;;
5965;SDS011;3009;43.224;27.976;2023-01-04T08:51:58;16.80;;;10.30;;
5965;SDS011;3009;43.224;27.976;2023-01-04T08:54:26;13.30;;;10.10;;
5965;SDS011;3009;43.224;27.976;2023-01-04T08:56:54;13.40;;;10.20;;
5965;SDS011;3009;43.224;27.976;2023-01-04T08:59:22;21.30;;;11.23;;
5965;SDS011;3009;43.224;27.976;2023-01-04T09:01:50;15.53;;;10.90;;
5965;SDS011;3009;43.224;27.976;2023-01-04T09:04:20;18.47;;;11.60;;
5965;SDS011;3009;43.224;27.976;2023-01-04T09:06:49;15.00;;;10.60;;
5965;SDS011;3009;43.224;27.976;2023-01-04T09:09:18;18.20;;;11.80;;
5965;SDS011;3009;43.224;27.976;2023-01-04T09:11:46;15.97;;;11.50;;
5965;SDS011;3009;43.224;27.976;2023-01-04T09:14:14;18.70;;;11.17;;
5965;SDS011;3009;43.224;27.976;2023-01-04T09:16:43;17.90;;;11.73;;
5965;SDS011;3009;43.224;27.976;2023-01-04T09:19:11;18.37;;;10.67;;
5965;SDS011;3009;43.224;27.976;2023-01-04T09:21:47;17.73;;;10.77;;
5965;SDS011;3009;43.224;27.976;2023-01-04T09:24:17;19.80;;;11.50;;
5965;SDS011;3009;43.224;27.976;2023-01-04T09:26:45;15.30;;;11.20;;
5965;SDS011;3009;43.224;27.976;2023-01-04T09:29:13;18.10;;;11.63;;
5965;SDS011;3009;43.224;27.976;2023-01-04T09:31:42;16.30;;;10.93;;
5965;SDS011;3009;43.224;27.976;2023-01-04T09:34:10;20.10;;;12.10;;
5965;SDS011;3009;43.224;27.976;2023-01-04T09:36:42;15.10;;;11.13;;
5965;SDS011;3009;43.224;27.976;2023-01-04T09:39:10;13.40;;;9.73;;
5965;SDS011;3009;43.224;27.976;2023-01-04T09:41:51;17.50;;;10.17;;
5965;SDS011;3009;43.224;27.976;2023-01-04T09:44:32;14.87;;;9.70;;
5965;SDS011;3009;43.224;27.976;2023-01-04T09:47:29;15.57;;;10.63;;
5965;SDS011;3009;43.224;27.976;2023-01-04T09:50:04;17.23;;;10.17;;
5965;SDS011;3009;43.224;27.976;2023-01-04T09:52:44;15.67;;;10.80;;
5965;SDS011;3009;43.224;27.976;2023-01-04T09:55:20;19.87;;;10.20;;
5965;SDS011;3009;43.224;27.976;2023-01-04T09:58:10;15.27;;;10.23;;
5965;SDS011;3009;43.224;27.976;2023-01-04T10:00:47;15.47;;;10.10;;
5965;SDS011;3009;43.224;27.976;2023-01-04T10:03:19;12.70;;;9.60;;
5965;SDS011;3009;43.224;27.976;2023-01-04T10:05:52;16.97;;;10.87;;
5965;SDS011;3009;43.224;27.976;2023-01-04T10:08:22;12.70;;;9.17;;
5965;SDS011;3009;43.224;27.976;2023-01-04T10:10:53;11.90;;;8.23;;
5965;SDS011;3009;43.224;27.976;2023-01-04T10:13:39;8.80;;;7.60;;
5965;SDS011;3009;43.224;27.976;2023-01-04T10:16:22;14.87;;;8.43;;
5965;SDS011;3009;43.224;27.976;2023-01-04T10:19:26;11.87;;;8.90;;
5965;SDS011;3009;43.224;27.976;2023-01-04T10:22:25;13.90;;;9.33;;
5965;SDS011;3009;43.224;27.976;2023-01-04T10:25:06;11.83;;;8.70;;
5965;SDS011;3009;43.224;27.976;2023-01-04T10:27:47;12.30;;;8.50;;
5965;SDS011;3009;43.224;27.976;2023-01-04T10:30:28;11.20;;;8.30;;
5965;SDS011;3009;43.224;27.976;2023-01-04T10:33:03;24.50;;;9.10;;
5965;SDS011;3009;43.224;27.976;2023-01-04T10:35:38;13.30;;;8.50;;
5965;SDS011;3009;43.224;27.976;2023-01-04T10:38:11;9.80;;;7.67;;
5965;SDS011;3009;43.224;27.976;2023-01-04T10:40:43;15.53;;;8.63;;
5965;SDS011;3009;43.224;27.976;2023-01-04T10:43:15;12.40;;;8.77;;
5965;SDS011;3009;43.224;27.976;2023-01-04T10:45:52;10.97;;;7.63;;
5965;SDS011;3009;43.224;27.976;2023-01-04T10:48:29;16.53;;;8.80;;
5965;SDS011;3009;43.224;27.976;2023-01-04T10:51:05;10.50;;;8.23;;
5965;SDS011;3009;43.224;27.976;2023-01-04T10:53:37;10.67;;;7.40;;
5965;SDS011;3009;43.224;27.976;2023-01-04T10:56:12;12.63;;;7.67;;
5965;SDS011;3009;43.224;27.976;2023-01-04T10:58:54;13.33;;;9.57;;
5965;SDS011;3009;43.224;27.976;2023-01-04T11:01:28;7.03;;;6.30;;
5965;SDS011;3009;43.224;27.976;2023-01-04T11:04:02;10.20;;;6.93;;
5965;SDS011;3009;43.224;27.976;2023-01-04T11:06:38;10.57;;;7.27;;
5965;SDS011;3009;43.224;27.976;2023-01-04T11:09:12;10.10;;;6.40;;
5965;SDS011;3009;43.224;27.976;2023-01-04T11:11:50;13.07;;;8.10;;
5965;SDS011;3009;43.224;27.976;2023-01-04T11:14:21;13.23;;;8.10;;
5965;SDS011;3009;43.224;27.976;2023-01-04T11:16:53;10.37;;;7.40;;
5965;SDS011;3009;43.224;27.976;2023-01-04T11:19:26;10.50;;;7.70;;
5965;SDS011;3009;43.224;27.976;2023-01-04T11:21:56;11.30;;;8.17;;
5965;SDS011;3009;43.224;27.976;2023-01-04T11:24:31;10.73;;;8.03;;
5965;SDS011;3009;43.224;27.976;2023-01-04T11:27:03;15.07;;;9.33;;
5965;SDS011;3009;43.224;27.976;2023-01-04T11:29:35;12.00;;;8.33;;
5965;SDS011;3009;43.224;27.976;2023-01-04T11:32:15;12.93;;;8.60;;
5965;SDS011;3009;43.224;27.976;2023-01-04T11:34:48;16.77;;;9.20;;
5965;SDS011;3009;43.224;27.976;2023-01-04T11:37:23;11.17;;;7.17;;
5965;SDS011;3009;43.224;27.976;2023-01-04T11:42:50;10.63;;;8.30;;
5965;SDS011;3009;43.224;27.976;2023-01-04T11:45:21;15.07;;;9.00;;
5965;SDS011;3009;43.224;27.976;2023-01-04T11:47:53;18.70;;;9.13;;
5965;SDS011;3009;43.224;27.976;2023-01-04T11:50:33;12.73;;;8.40;;
5965;SDS011;3009;43.224;27.976;2023-01-04T11:53:18;13.50;;;9.77;;
5965;SDS011;3009;43.224;27.976;2023-01-04T11:55:49;14.90;;;10.03;;
5965;SDS011;3009;43.224;27.976;2023-01-04T11:58:18;15.27;;;7.77;;
5965;SDS011;3009;43.224;27.976;2023-01-04T12:00:48;16.33;;;8.33;;
5965;SDS011;3009;43.224;27.976;2023-01-04T12:03:21;15.23;;;9.50;;
5965;SDS011;3009;43.224;27.976;2023-01-04T12:05:54;10.17;;;7.73;;
5965;SDS011;3009;43.224;27.976;2023-01-04T12:08:26;13.43;;;8.50;;
5965;SDS011;3009;43.224;27.976;2023-01-04T12:10:58;22.40;;;8.10;;
5965;SDS011;3009;43.224;27.976;2023-01-04T12:13:28;12.00;;;8.07;;
5965;SDS011;3009;43.224;27.976;2023-01-04T12:16:01;15.53;;;7.43;;
5965;SDS011;3009;43.224;27.976;2023-01-04T12:18:36;8.80;;;7.77;;
5965;SDS011;3009;43.224;27.976;2023-01-04T12:21:07;13.47;;;9.23;;
5965;SDS011;3009;43.224;27.976;2023-01-04T12:23:45;13.53;;;9.30;;
5965;SDS011;3009;43.224;27.976;2023-01-04T12:26:14;15.00;;;8.40;;
5965;SDS011;3009;43.224;27.976;2023-01-04T12:28:44;9.80;;;8.10;;
5965;SDS011;3009;43.224;27.976;2023-01-04T12:31:27;15.13;;;10.30;;
5965;SDS011;3009;43.224;27.976;2023-01-04T12:34:00;17.80;;;9.77;;
5965;SDS011;3009;43.224;27.976;2023-01-04T12:37:09;10.27;;;7.53;;
5965;SDS011;3009;43.224;27.976;2023-01-04T12:39:40;18.97;;;9.40;;
5965;SDS011;3009;43.224;27.976;2023-01-04T12:42:14;11.93;;;8.30;;
5965;SDS011;3009;43.224;27.976;2023-01-04T12:47:48;12.43;;;8.43;;
5965;SDS011;3009;43.224;27.976;2023-01-04T12:53:59;12.77;;;8.30;;
5965;SDS011;3009;43.224;27.976;2023-01-04T12:59:35;13.40;;;9.03;;
5965;SDS011;3009;43.224;27.976;2023-01-04T13:02:11;19.57;;;9.80;;
5965;SDS011;3009;43.224;27.976;2023-01-04T13:04:43;16.43;;;9.00;;
5965;SDS011;3009;43.224;27.976;2023-01-04T13:07:13;15.13;;;9.80;;
5965;SDS011;3009;43.224;27.976;2023-01-04T13:09:50;15.80;;;10.50;;
5965;SDS011;3009;43.224;27.976;2023-01-04T13:12:41;19.27;;;9.93;;
5965;SDS011;3009;43.224;27.976;2023-01-04T13:15:34;16.03;;;10.33;;
5965;SDS011;3009;43.224;27.976;2023-01-04T13:18:23;12.30;;;9.33;;
5965;SDS011;3009;43.224;27.976;2023-01-04T13:20:59;11.60;;;8.30;;
5965;SDS011;3009;43.224;27.976;2023-01-04T13:23:28;11.20;;;7.70;;
5965;SDS011;3009;43.224;27.976;2023-01-04T13:29:13;14.80;;;8.93;;
5965;SDS011;3009;43.224;27.976;2023-01-04T13:31:45;11.53;;;7.80;;
5965;SDS011;3009;43.224;27.976;2023-01-04T13:34:20;10.60;;;8.20;;
5965;SDS011;3009;43.224;27.976;2023-01-04T13:36:55;13.10;;;9.50;;
5965;SDS011;3009;43.224;27.976;2023-01-04T13:39:28;15.97;;;9.50;;
5965;SDS011;3009;43.224;27.976;2023-01-04T13:41:58;13.43;;;8.60;;
5965;SDS011;3009;43.224;27.976;2023-01-04T13:44:32;16.60;;;9.90;;
5965;SDS011;3009;43.224;27.976;2023-01-04T13:47:36;15.83;;;10.00;;
5965;SDS011;3009;43.224;27.976;2023-01-04T13:50:25;15.30;;;10.40;;
5965;SDS011;3009;43.224;27.976;2023-01-04T13:53:02;15.43;;;10.20;;
5965;SDS011;3009;43.224;27.976;2023-01-04T13:55:35;14.90;;;9.80;;
5965;SDS011;3009;43.224;27.976;2023-01-04T13:58:06;15.20;;;10.33;;
5965;SDS011;3009;43.224;27.976;2023-01-04T14:00:44;17.50;;;9.40;;
5965;SDS011;3009;43.224;27.976;2023-01-04T14:03:22;16.43;;;9.80;;
5965;SDS011;3009;43.224;27.976;2023-01-04T14:05:54;21.40;;;10.30;;
5965;SDS011;3009;43.224;27.976;2023-01-04T14:08:30;13.17;;;8.97;;
5965;SDS011;3009;43.224;27.976;2023-01-04T14:11:01;15.73;;;8.87;;
5965;SDS011;3009;43.224;27.976;2023-01-04T14:13:39;14.20;;;9.30;;
5965;SDS011;3009;43.224;27.976;2023-01-04T14:16:12;21.30;;;9.60;;
5965;SDS011;3009;43.224;27.976;2023-01-04T14:18:41;13.67;;;8.83;;
5965;SDS011;3009;43.224;27.976;2023-01-04T14:21:14;12.80;;;8.60;;
5965;SDS011;3009;43.224;27.976;2023-01-04T14:23:43;16.23;;;10.37;;
5965;SDS011;3009;43.224;27.976;2023-01-04T14:28:58;16.30;;;9.60;;
5965;SDS011;3009;43.224;27.976;2023-01-04T14:31:56;16.40;;;10.40;;
5965;SDS011;3009;43.224;27.976;2023-01-04T14:34:24;13.37;;;9.40;;
5965;SDS011;3009;43.224;27.976;2023-01-04T14:37:00;13.30;;;9.47;;
5965;SDS011;3009;43.224;27.976;2023-01-04T14:39:31;14.77;;;9.17;;
5965;SDS011;3009;43.224;27.976;2023-01-04T14:42:01;12.83;;;8.43;;
5965;SDS011;3009;43.224;27.976;2023-01-04T14:44:31;13.77;;;9.20;;
5965;SDS011;3009;43.224;27.976;2023-01-04T14:47:01;10.70;;;8.40;;
5965;SDS011;3009;43.224;27.976;2023-01-04T14:49:33;20.57;;;9.90;;
5965;SDS011;3009;43.224;27.976;2023-01-04T14:52:02;12.87;;;8.93;;
5965;SDS011;3009;43.224;27.976;2023-01-04T14:54:36;12.40;;;9.17;;
5965;SDS011;3009;43.224;27.976;2023-01-04T14:57:05;10.70;;;8.83;;
5965;SDS011;3009;43.224;27.976;2023-01-04T14:59:34;12.47;;;8.50;;
5965;SDS011;3009;43.224;27.976;2023-01-04T15:02:03;14.93;;;9.47;;
5965;SDS011;3009;43.224;27.976;2023-01-04T15:04:32;19.23;;;10.03;;
5965;SDS011;3009;43.224;27.976;2023-01-04T15:07:00;17.07;;;10.60;;
5965;SDS011;3009;43.224;27.976;2023-01-04T15:09:28;22.33;;;15.70;;
5965;SDS011;3009;43.224;27.976;2023-01-04T15:11:58;15.40;;;11.30;;
5965;SDS011;3009;43.224;27.976;2023-01-04T15:14:26;14.60;;;10.53;;
5965;SDS011;3009;43.224;27.976;2023-01-04T15:16:56;14.27;;;10.80;;
5965;SDS011;3009;43.224;27.976;2023-01-04T15:19:24;15.60;;;10.10;;
5965;SDS011;3009;43.224;27.976;2023-01-04T15:21:59;14.07;;;10.07;;
5965;SDS011;3009;43.224;27.976;2023-01-04T15:24:27;14.03;;;9.80;;
5965;SDS011;3009;43.224;27.976;2023-01-04T15:26:55;14.90;;;10.37;;
5965;SDS011;3009;43.224;27.976;2023-01-04T15:29:24;25.90;;;12.93;;
5965;SDS011;3009;43.224;27.976;2023-01-04T15:31:52;18.87;;;11.00;;
5965;SDS011;3009;43.224;27.976;2023-01-04T15:34:22;24.37;;;13.60;;
5965;SDS011;3009;43.224;27.976;2023-01-04T15:36:50;24.17;;;15.57;;
5965;SDS011;3009;43.224;27.976;2023-01-04T15:39:20;23.23;;;13.27;;
5965;SDS011;3009;43.224;27.976;2023-01-04T15:41:48;28.97;;;16.73;;
5965;SDS011;3009;43.224;27.976;2023-01-04T15:44:35;25.47;;;15.20;;
5965;SDS011;3009;43.224;27.976;2023-01-04T15:47:03;26.83;;;17.10;;